sensor_id;sensor_type;location;lat;lon;timestamp;pressure;altitude;pressure_sealevel;temperature;humidity
34482;BME280;20720;48.886;9.388;2023-02-28T00:00:04;99149.09;;;0.76;87.47
34482;BME280;20720;48.886;9.388;2023-02-28T00:02:34;99145.94;;;0.51;89.61
34482;BME280;20720;48.886;9.388;2023-02-28T00:05:00;99142.69;;;0.25;89.06
34482;BME280;20720;48.886;9.388;2023-02-28T00:07:26;99141.34;;;0.43;88.43
34482;BME280;20720;48.886;9.388;2023-02-28T00:09:51;99142.53;;;0.05;89.96
34482;BME280;20720;48.886;9.388;2023-02-28T00:12:16;99144.19;;;0.62;87.76
34482;BME280;20720;48.886;9.388;2023-02-28T00:14:41;99147.09;;;0.36;88.73
34482;BME280;20720;48.886;9.388;2023-02-28T00:17:07;99140.25;;;0.35;90.17
34482;BME280;20720;48.886;9.388;2023-02-28T00:19:32;99137.81;;;0.44;87.78
34482;BME280;20720;48.886;9.388;2023-02-28T00:21:57;99134.75;;;0.28;91.33
34482;BME280;20720;48.886;9.388;2023-02-28T00:24:22;99139.13;;;0.83;89.20
34482;BME280;20720;48.886;9.388;2023-02-28T00:26:47;99136.31;;;-0.04;92.29
34482;BME280;20720;48.886;9.388;2023-02-28T00:29:13;99137.94;;;0.54;91.21
34482;BME280;20720;48.886;9.388;2023-02-28T00:31:38;99133.47;;;0.34;92.65
34482;BME280;20720;48.886;9.388;2023-02-28T00:34:03;99137.84;;;0.10;94.20
34482;BME280;20720;48.886;9.388;2023-02-28T00:36:28;99134.59;;;0.08;95.02
34482;BME280;20720;48.886;9.388;2023-02-28T00:38:53;99132.06;;;-0.05;96.23
34482;BME280;20720;48.886;9.388;2023-02-28T00:41:18;99132.63;;;0.33;94.23
34482;BME280;20720;48.886;9.388;2023-02-28T00:43:44;99135.59;;;0.51;94.70
34482;BME280;20720;48.886;9.388;2023-02-28T00:46:09;99129.94;;;0.57;94.09
34482;BME280;20720;48.886;9.388;2023-02-28T00:48:35;99129.47;;;0.52;94.93
34482;BME280;20720;48.886;9.388;2023-02-28T00:51:00;99136.81;;;0.23;97.16
34482;BME280;20720;48.886;9.388;2023-02-28T00:53:26;99135.88;;;0.13;99.58
34482;BME280;20720;48.886;9.388;2023-02-28T00:55:51;99136.16;;;0.32;97.98
34482;BME280;20720;48.886;9.388;2023-02-28T00:58:17;99134.66;;;0.06;99.82
34482;BME280;20720;48.886;9.388;2023-02-28T01:00:42;99128.28;;;0.34;97.37
34482;BME280;20720;48.886;9.388;2023-02-28T01:03:07;99134.34;;;0.11;99.32
34482;BME280;20720;48.886;9.388;2023-02-28T01:05:32;99137.75;;;0.11;100.00
34482;BME280;20720;48.886;9.388;2023-02-28T01:07:57;99133.03;;;-0.30;100.00
34482;BME280;20720;48.886;9.388;2023-02-28T01:10:23;99134.25;;;0.34;100.00
34482;BME280;20720;48.886;9.388;2023-02-28T01:12:48;99127.00;;;0.28;100.00
34482;BME280;20720;48.886;9.388;2023-02-28T01:15:13;99127.25;;;0.47;99.65
34482;BME280;20720;48.886;9.388;2023-02-28T01:17:38;99125.94;;;0.42;98.93
34482;BME280;20720;48.886;9.388;2023-02-28T01:20:04;99123.59;;;-0.07;100.00
34482;BME280;20720;48.886;9.388;2023-02-28T01:22:29;99123.47;;;0.40;100.00
34482;BME280;20720;48.886;9.388;2023-02-28T01:24:54;99119.56;;;-0.22;100.00
34482;BME280;20720;48.886;9.388;2023-02-28T01:27:19;99123.69;;;0.15;100.00
34482;BME280;20720;48.886;9.388;2023-02-28T01:29:45;99121.91;;;0.27;100.00
34482;BME280;20720;48.886;9.388;2023-02-28T01:32:10;99123.88;;;0.12;100.00
34482;BME280;20720;48.886;9.388;2023-02-28T01:34:35;99122.03;;;0.25;100.00
34482;BME280;20720;48.886;9.388;2023-02-28T01:37:00;99120.13;;;0.05;100.00
34482;BME280;20720;48.886;9.388;2023-02-28T01:39:26;99123.47;;;0.51;100.00
34482;BME280;20720;48.886;9.388;2023-02-28T01:41:51;99113.81;;;0.09;100.00
34482;BME280;20720;48.886;9.388;2023-02-28T01:47:00;99120.09;;;-0.06;100.00
34482;BME280;20720;48.886;9.388;2023-02-28T01:49:25;99117.97;;;-0.12;100.00
34482;BME280;20720;48.886;9.388;2023-02-28T01:51:51;99119.44;;;0.14;100.00
34482;BME280;20720;48.886;9.388;2023-02-28T01:54:25;99116.28;;;-0.24;100.00
34482;BME280;20720;48.886;9.388;2023-02-28T01:56:57;99116.75;;;0.27;100.00
34482;BME280;20720;48.886;9.388;2023-02-28T01:59:27;99112.44;;;-0.08;100.00
34482;BME280;20720;48.886;9.388;2023-02-28T02:01:54;99117.09;;;-0.24;100.00
34482;BME280;20720;48.886;9.388;2023-02-28T02:04:21;99110.38;;;-0.03;100.00
34482;BME280;20720;48.886;9.388;2023-02-28T02:06:48;99106.06;;;0.20;100.00
34482;BME280;20720;48.886;9.388;2023-02-28T02:09:13;99105.66;;;-0.09;100.00
34482;BME280;20720;48.886;9.388;2023-02-28T02:11:39;99105.03;;;0.56;100.00
34482;BME280;20720;48.886;9.388;2023-02-28T02:24:44;99095.59;;;-0.35;100.00
34482;BME280;20720;48.886;9.388;2023-02-28T02:27:17;99094.34;;;0.38;100.00
34482;BME280;20720;48.886;9.388;2023-02-28T02:29:54;99085.41;;;0.42;100.00
34482;BME280;20720;48.886;9.388;2023-02-28T02:35:12;99088.00;;;0.53;100.00
34482;BME280;20720;48.886;9.388;2023-02-28T02:40:20;99091.63;;;0.29;100.00
34482;BME280;20720;48.886;9.388;2023-02-28T02:42:59;99094.00;;;0.65;100.00
34482;BME280;20720;48.886;9.388;2023-02-28T02:46:02;99087.38;;;0.06;100.00
34482;BME280;20720;48.886;9.388;2023-02-28T02:48:18;99091.53;;;0.52;100.00
34482;BME280;20720;48.886;9.388;2023-02-28T02:51:06;99090.88;;;0.05;100.00
34482;BME280;20720;48.886;9.388;2023-02-28T02:53:32;99088.94;;;0.63;100.00
34482;BME280;20720;48.886;9.388;2023-02-28T02:56:00;99095.50;;;0.23;100.00
34482;BME280;20720;48.886;9.388;2023-02-28T02:58:27;99088.53;;;0.02;100.00
34482;BME280;20720;48.886;9.388;2023-02-28T03:00:55;99089.59;;;0.10;100.00
34482;BME280;20720;48.886;9.388;2023-02-28T03:03:24;99078.81;;;0.16;100.00
34482;BME280;20720;48.886;9.388;2023-02-28T03:06:00;99085.66;;;0.39;100.00
34482;BME280;20720;48.886;9.388;2023-02-28T03:08:26;99078.09;;;0.14;100.00
34482;BME280;20720;48.886;9.388;2023-02-28T03:10:52;99079.06;;;0.57;100.00
34482;BME280;20720;48.886;9.388;2023-02-28T03:13:34;99080.13;;;0.44;100.00
34482;BME280;20720;48.886;9.388;2023-02-28T03:18:41;99079.00;;;-0.09;100.00
34482;BME280;20720;48.886;9.388;2023-02-28T03:26:29;99091.53;;;0.63;100.00
34482;BME280;20720;48.886;9.388;2023-02-28T03:29:03;99084.44;;;0.21;100.00
34482;BME280;20720;48.886;9.388;2023-02-28T03:31:32;99084.25;;;0.35;100.00
34482;BME280;20720;48.886;9.388;2023-02-28T03:34:05;99087.50;;;0.81;100.00
34482;BME280;20720;48.886;9.388;2023-02-28T03:36:36;99085.66;;;0.39;100.00
34482;BME280;20720;48.886;9.388;2023-02-28T03:39:08;99086.59;;;1.25;100.00
34482;BME280;20720;48.886;9.388;2023-02-28T03:41:45;99087.16;;;0.31;100.00
34482;BME280;20720;48.886;9.388;2023-02-28T03:44:16;99083.06;;;0.72;100.00
34482;BME280;20720;48.886;9.388;2023-02-28T03:46:45;99081.88;;;0.87;100.00
34482;BME280;20720;48.886;9.388;2023-02-28T03:49:23;99090.13;;;0.26;100.00
34482;BME280;20720;48.886;9.388;2023-02-28T03:51:50;99089.19;;;0.60;100.00
34482;BME280;20720;48.886;9.388;2023-02-28T03:54:22;99090.19;;;1.13;100.00
34482;BME280;20720;48.886;9.388;2023-02-28T03:57:02;99084.00;;;0.49;100.00
34482;BME280;20720;48.886;9.388;2023-02-28T03:59:35;99086.31;;;0.08;100.00
34482;BME280;20720;48.886;9.388;2023-02-28T04:02:01;99092.59;;;0.50;100.00
34482;BME280;20720;48.886;9.388;2023-02-28T04:04:27;99091.16;;;0.46;100.00
34482;BME280;20720;48.886;9.388;2023-02-28T04:06:53;99093.59;;;0.14;100.00
34482;BME280;20720;48.886;9.388;2023-02-28T04:09:25;99092.94;;;0.56;100.00
34482;BME280;20720;48.886;9.388;2023-02-28T04:11:51;99086.50;;;0.51;100.00
34482;BME280;20720;48.886;9.388;2023-02-28T04:14:17;99099.16;;;0.32;100.00
34482;BME280;20720;48.886;9.388;2023-02-28T04:16:42;99090.47;;;0.44;100.00
34482;BME280;20720;48.886;9.388;2023-02-28T04:19:08;99100.44;;;0.81;100.00
34482;BME280;20720;48.886;9.388;2023-02-28T04:21:34;99103.03;;;0.37;100.00
34482;BME280;20720;48.886;9.388;2023-02-28T04:24:00;99105.28;;;0.53;100.00
34482;BME280;20720;48.886;9.388;2023-02-28T04:26:28;99099.03;;;1.00;100.00
34482;BME280;20720;48.886;9.388;2023-02-28T04:28:54;99104.00;;;1.23;100.00
34482;BME280;20720;48.886;9.388;2023-02-28T04:31:19;99096.28;;;1.12;100.00
34482;BME280;20720;48.886;9.388;2023-02-28T04:33:45;99103.88;;;0.38;100.00
34482;BME280;20720;48.886;9.388;2023-02-28T04:36:10;99095.63;;;0.33;100.00
34482;BME280;20720;48.886;9.388;2023-02-28T04:38:36;99100.44;;;0.15;100.00
34482;BME280;20720;48.886;9.388;2023-02-28T04:41:02;99102.00;;;0.40;100.00
34482;BME280;20720;48.886;9.388;2023-02-28T04:43:27;99093.63;;;0.91;100.00
34482;BME280;20720;48.886;9.388;2023-02-28T04:45:53;99097.06;;;0.70;100.00
34482;BME280;20720;48.886;9.388;2023-02-28T04:48:19;99097.41;;;0.43;100.00
34482;BME280;20720;48.886;9.388;2023-02-28T04:50:44;99091.75;;;0.38;100.00
34482;BME280;20720;48.886;9.388;2023-02-28T04:53:09;99094.34;;;0.38;100.00
34482;BME280;20720;48.886;9.388;2023-02-28T04:55:35;99085.88;;;0.80;100.00
34482;BME280;20720;48.886;9.388;2023-02-28T04:58:00;99085.66;;;0.28;100.00
34482;BME280;20720;48.886;9.388;2023-02-28T05:00:25;99090.25;;;0.47;100.00
34482;BME280;20720;48.886;9.388;2023-02-28T05:02:50;99090.53;;;1.09;100.00
34482;BME280;20720;48.886;9.388;2023-02-28T05:05:15;99087.53;;;0.92;100.00
34482;BME280;20720;48.886;9.388;2023-02-28T05:07:43;99092.69;;;0.81;100.00
34482;BME280;20720;48.886;9.388;2023-02-28T05:10:09;99102.13;;;0.60;100.00
34482;BME280;20720;48.886;9.388;2023-02-28T05:12:34;99097.53;;;0.53;100.00
34482;BME280;20720;48.886;9.388;2023-02-28T05:14:59;99097.50;;;0.42;100.00
34482;BME280;20720;48.886;9.388;2023-02-28T05:17:26;99094.78;;;0.21;100.00
34482;BME280;20720;48.886;9.388;2023-02-28T05:19:51;99100.19;;;0.29;100.00
34482;BME280;20720;48.886;9.388;2023-02-28T05:22:16;99094.94;;;0.64;100.00
34482;BME280;20720;48.886;9.388;2023-02-28T05:24:42;99093.41;;;0.39;100.00
34482;BME280;20720;48.886;9.388;2023-02-28T05:27:07;99103.50;;;0.53;100.00
34482;BME280;20720;48.886;9.388;2023-02-28T05:29:32;99096.69;;;0.74;100.00
34482;BME280;20720;48.886;9.388;2023-02-28T05:31:59;99097.53;;;0.75;100.00
34482;BME280;20720;48.886;9.388;2023-02-28T05:34:24;99096.22;;;0.69;100.00
34482;BME280;20720;48.886;9.388;2023-02-28T05:36:49;99096.22;;;0.36;100.00
34482;BME280;20720;48.886;9.388;2023-02-28T05:39:14;99092.69;;;0.37;100.00
34482;BME280;20720;48.886;9.388;2023-02-28T05:41:40;99095.63;;;0.33;100.00
34482;BME280;20720;48.886;9.388;2023-02-28T05:44:05;99095.88;;;0.63;100.00
34482;BME280;20720;48.886;9.388;2023-02-28T05:46:31;99094.31;;;0.27;100.00
34482;BME280;20720;48.886;9.388;2023-02-28T05:48:56;99090.31;;;0.23;100.00
34482;BME280;20720;48.886;9.388;2023-02-28T05:51:22;99096.69;;;0.41;100.00
34482;BME280;20720;48.886;9.388;2023-02-28T05:53:48;99097.88;;;0.92;100.00
34482;BME280;20720;48.886;9.388;2023-02-28T05:56:14;99103.03;;;0.48;100.00
34482;BME280;20720;48.886;9.388;2023-02-28T05:58:39;99106.31;;;0.94;100.00
34482;BME280;20720;48.886;9.388;2023-02-28T06:01:24;99109.38;;;0.44;100.00
34482;BME280;20720;48.886;9.388;2023-02-28T06:03:49;99114.53;;;0.66;100.00
34482;BME280;20720;48.886;9.388;2023-02-28T06:06:14;99115.50;;;0.32;100.00
34482;BME280;20720;48.886;9.388;2023-02-28T06:08:40;99108.44;;;0.78;100.00
34482;BME280;20720;48.886;9.388;2023-02-28T06:11:05;99114.53;;;1.11;100.00
34482;BME280;20720;48.886;9.388;2023-02-28T06:13:31;99120.78;;;0.75;100.00
34482;BME280;20720;48.886;9.388;2023-02-28T06:15:56;99122.09;;;0.58;100.00
34482;BME280;20720;48.886;9.388;2023-02-28T06:18:25;99123.44;;;1.29;100.00
34482;BME280;20720;48.886;9.388;2023-02-28T06:20:53;99128.19;;;0.46;100.00
34482;BME280;20720;48.886;9.388;2023-02-28T06:23:19;99127.03;;;0.94;100.00
34482;BME280;20720;48.886;9.388;2023-02-28T06:25:45;99129.72;;;0.60;100.00
34482;BME280;20720;48.886;9.388;2023-02-28T06:28:10;99126.31;;;0.92;100.00
34482;BME280;20720;48.886;9.388;2023-02-28T06:30:36;99129.59;;;0.39;100.00
34482;BME280;20720;48.886;9.388;2023-02-28T06:33:02;99134.75;;;1.17;100.00
34482;BME280;20720;48.886;9.388;2023-02-28T06:35:27;99128.88;;;0.81;100.00
34482;BME280;20720;48.886;9.388;2023-02-28T06:37:52;99132.03;;;0.41;100.00
34482;BME280;20720;48.886;9.388;2023-02-28T06:40:17;99132.78;;;0.87;100.00
34482;BME280;20720;48.886;9.388;2023-02-28T06:42:43;99140.44;;;1.42;100.00
34482;BME280;20720;48.886;9.388;2023-02-28T06:45:08;99143.72;;;0.79;100.00
34482;BME280;20720;48.886;9.388;2023-02-28T06:47:34;99145.41;;;1.23;100.00
34482;BME280;20720;48.886;9.388;2023-02-28T06:49:59;99152.41;;;0.78;100.00
34482;BME280;20720;48.886;9.388;2023-02-28T06:52:26;99148.50;;;0.84;100.00
34482;BME280;20720;48.886;9.388;2023-02-28T06:54:51;99152.75;;;1.61;100.00
34482;BME280;20720;48.886;9.388;2023-02-28T06:57:24;99149.66;;;1.24;100.00
34482;BME280;20720;48.886;9.388;2023-02-28T06:59:50;99150.25;;;1.28;100.00
34482;BME280;20720;48.886;9.388;2023-02-28T07:02:15;99150.72;;;1.96;100.00
34482;BME280;20720;48.886;9.388;2023-02-28T07:04:40;99162.59;;;1.67;100.00
34482;BME280;20720;48.886;9.388;2023-02-28T07:07:08;99158.47;;;0.44;100.00
34482;BME280;20720;48.886;9.388;2023-02-28T07:09:33;99157.22;;;0.83;100.00
34482;BME280;20720;48.886;9.388;2023-02-28T07:11:59;99163.19;;;0.83;100.00
34482;BME280;20720;48.886;9.388;2023-02-28T07:14:25;99157.69;;;0.55;100.00
34482;BME280;20720;48.886;9.388;2023-02-28T07:16:51;99168.88;;;0.88;100.00
34482;BME280;20720;48.886;9.388;2023-02-28T07:19:16;99165.66;;;1.18;100.00
34482;BME280;20720;48.886;9.388;2023-02-28T07:21:41;99165.19;;;1.67;100.00
34482;BME280;20720;48.886;9.388;2023-02-28T07:24:06;99157.47;;;1.56;100.00
34482;BME280;20720;48.886;9.388;2023-02-28T07:26:32;99164.13;;;1.38;100.00
34482;BME280;20720;48.886;9.388;2023-02-28T07:28:59;99166.16;;;1.01;100.00
34482;BME280;20720;48.886;9.388;2023-02-28T07:31:24;99175.47;;;1.68;100.00
34482;BME280;20720;48.886;9.388;2023-02-28T07:33:49;99176.91;;;1.82;100.00
34482;BME280;20720;48.886;9.388;2023-02-28T07:36:15;99172.94;;;1.24;100.00
34482;BME280;20720;48.886;9.388;2023-02-28T07:38:43;99168.59;;;1.14;100.00
34482;BME280;20720;48.886;9.388;2023-02-28T07:41:09;99176.63;;;0.88;100.00
34482;BME280;20720;48.886;9.388;2023-02-28T07:43:34;99183.06;;;1.27;100.00
34482;BME280;20720;48.886;9.388;2023-02-28T07:46:04;99179.41;;;1.30;100.00
34482;BME280;20720;48.886;9.388;2023-02-28T07:48:29;99180.13;;;1.32;100.00
34482;BME280;20720;48.886;9.388;2023-02-28T07:50:55;99172.06;;;1.46;100.00
34482;BME280;20720;48.886;9.388;2023-02-28T07:53:20;99181.16;;;1.83;100.00
34482;BME280;20720;48.886;9.388;2023-02-28T07:55:45;99179.03;;;1.45;100.00
34482;BME280;20720;48.886;9.388;2023-02-28T07:58:11;99182.38;;;1.03;100.00
34482;BME280;20720;48.886;9.388;2023-02-28T08:00:36;99186.44;;;1.39;100.00
34482;BME280;20720;48.886;9.388;2023-02-28T08:03:01;99186.13;;;1.32;100.00
34482;BME280;20720;48.886;9.388;2023-02-28T08:05:26;99188.38;;;0.92;100.00
34482;BME280;20720;48.886;9.388;2023-02-28T08:07:51;99185.31;;;1.10;100.00
34482;BME280;20720;48.886;9.388;2023-02-28T08:10:18;99181.91;;;0.98;100.00
34482;BME280;20720;48.886;9.388;2023-02-28T08:12:43;99176.06;;;1.61;100.00
34482;BME280;20720;48.886;9.388;2023-02-28T08:15:08;99181.94;;;1.52;100.00
34482;BME280;20720;48.886;9.388;2023-02-28T08:17:34;99178.97;;;1.25;100.00
34482;BME280;20720;48.886;9.388;2023-02-28T08:19:59;99182.78;;;1.84;100.00
34482;BME280;20720;48.886;9.388;2023-02-28T08:22:24;99181.75;;;2.90;98.60
34482;BME280;20720;48.886;9.388;2023-02-28T08:24:49;99188.22;;;2.54;99.33
34482;BME280;20720;48.886;9.388;2023-02-28T08:27:14;99181.81;;;1.96;100.00
34482;BME280;20720;48.886;9.388;2023-02-28T08:29:40;99183.78;;;2.65;98.49
34482;BME280;20720;48.886;9.388;2023-02-28T08:32:05;99179.13;;;2.80;92.40
34482;BME280;20720;48.886;9.388;2023-02-28T08:34:30;99195.28;;;2.93;90.51
34482;BME280;20720;48.886;9.388;2023-02-28T08:36:56;99176.84;;;2.04;94.93
34482;BME280;20720;48.886;9.388;2023-02-28T08:39:21;99184.72;;;3.15;89.43
34482;BME280;20720;48.886;9.388;2023-02-28T08:41:46;99199.28;;;3.07;87.89
34482;BME280;20720;48.886;9.388;2023-02-28T08:44:11;99188.28;;;3.24;84.72
34482;BME280;20720;48.886;9.388;2023-02-28T08:46:37;99188.44;;;4.38;81.72
34482;BME280;20720;48.886;9.388;2023-02-28T08:49:02;99192.13;;;2.69;88.93
34482;BME280;20720;48.886;9.388;2023-02-28T08:51:28;99195.63;;;2.38;87.11
34482;BME280;20720;48.886;9.388;2023-02-28T08:53:54;99193.34;;;2.85;86.88
34482;BME280;20720;48.886;9.388;2023-02-28T08:56:20;99192.16;;;3.29;86.38
34482;BME280;20720;48.886;9.388;2023-02-28T08:58:46;99194.72;;;3.88;83.67
34482;BME280;20720;48.886;9.388;2023-02-28T09:01:13;99190.88;;;4.21;84.79
34482;BME280;20720;48.886;9.388;2023-02-28T09:03:39;99192.41;;;2.96;84.69
34482;BME280;20720;48.886;9.388;2023-02-28T09:06:06;99194.38;;;3.53;80.82
34482;BME280;20720;48.886;9.388;2023-02-28T09:08:31;99196.47;;;3.68;81.70
34482;BME280;20720;48.886;9.388;2023-02-28T09:10:57;99189.41;;;4.09;79.38
34482;BME280;20720;48.886;9.388;2023-02-28T09:13:23;99185.84;;;4.19;77.75
34482;BME280;20720;48.886;9.388;2023-02-28T09:15:48;99183.72;;;4.70;76.83
34482;BME280;20720;48.886;9.388;2023-02-28T09:18:14;99179.63;;;4.58;74.57
34482;BME280;20720;48.886;9.388;2023-02-28T09:20:40;99186.91;;;4.26;76.36
34482;BME280;20720;48.886;9.388;2023-02-28T09:23:08;99196.31;;;2.81;83.33
34482;BME280;20720;48.886;9.388;2023-02-28T09:25:34;99200.66;;;3.11;80.37
34482;BME280;20720;48.886;9.388;2023-02-28T09:27:59;99190.47;;;3.19;83.48
34482;BME280;20720;48.886;9.388;2023-02-28T09:30:25;99192.13;;;4.07;80.17
34482;BME280;20720;48.886;9.388;2023-02-28T09:32:50;99195.50;;;5.02;74.92
34482;BME280;20720;48.886;9.388;2023-02-28T09:35:22;99203.25;;;3.11;81.31
34482;BME280;20720;48.886;9.388;2023-02-28T09:37:48;99195.78;;;3.66;81.64
34482;BME280;20720;48.886;9.388;2023-02-28T09:40:13;99195.50;;;3.60;79.32
34482;BME280;20720;48.886;9.388;2023-02-28T09:42:39;99197.25;;;3.40;79.48
34482;BME280;20720;48.886;9.388;2023-02-28T09:45:06;99202.09;;;3.73;79.14
34482;BME280;20720;48.886;9.388;2023-02-28T09:47:39;99201.22;;;3.63;79.19
34482;BME280;20720;48.886;9.388;2023-02-28T09:52:37;99204.88;;;4.20;76.84
34482;BME280;20720;48.886;9.388;2023-02-28T09:57:40;99200.75;;;4.36;74.42
34482;BME280;20720;48.886;9.388;2023-02-28T10:03:00;99205.19;;;5.73;67.72
34482;BME280;20720;48.886;9.388;2023-02-28T10:08:09;99207.84;;;3.96;74.99
34482;BME280;20720;48.886;9.388;2023-02-28T10:10:42;99212.56;;;5.60;71.31
34482;BME280;20720;48.886;9.388;2023-02-28T10:15:45;99209.25;;;5.31;68.31
34482;BME280;20720;48.886;9.388;2023-02-28T10:18:13;99203.16;;;6.47;65.49
34482;BME280;20720;48.886;9.388;2023-02-28T10:20:39;99219.53;;;5.59;69.37
34482;BME280;20720;48.886;9.388;2023-02-28T10:25:35;99214.13;;;7.35;62.14
34482;BME280;20720;48.886;9.388;2023-02-28T10:28:04;99212.22;;;7.53;59.96
34482;BME280;20720;48.886;9.388;2023-02-28T10:30:30;99222.13;;;7.34;61.08
34482;BME280;20720;48.886;9.388;2023-02-28T10:32:55;99219.56;;;6.04;63.49
34482;BME280;20720;48.886;9.388;2023-02-28T10:35:22;99222.75;;;7.02;62.69
34482;BME280;20720;48.886;9.388;2023-02-28T10:37:49;99223.59;;;6.16;64.48
34482;BME280;20720;48.886;9.388;2023-02-28T10:42:42;99216.03;;;6.48;64.79
34482;BME280;20720;48.886;9.388;2023-02-28T10:45:19;99220.38;;;4.87;67.60
34482;BME280;20720;48.886;9.388;2023-02-28T10:47:55;99224.09;;;5.21;68.97
34482;BME280;20720;48.886;9.388;2023-02-28T10:53:07;99215.91;;;7.01;63.15
34482;BME280;20720;48.886;9.388;2023-02-28T10:55:32;99207.16;;;9.53;57.29
34482;BME280;20720;48.886;9.388;2023-02-28T10:57:58;99213.00;;;9.63;55.17
34482;BME280;20720;48.886;9.388;2023-02-28T11:00:24;99208.97;;;10.59;52.77
34482;BME280;20720;48.886;9.388;2023-02-28T11:02:50;99205.38;;;10.07;52.36
34482;BME280;20720;48.886;9.388;2023-02-28T11:05:32;99204.91;;;8.79;54.87
34482;BME280;20720;48.886;9.388;2023-02-28T11:10:29;99204.59;;;8.42;55.08
34482;BME280;20720;48.886;9.388;2023-02-28T11:12:56;99200.19;;;8.26;56.83
34482;BME280;20720;48.886;9.388;2023-02-28T11:15:23;99205.13;;;7.30;58.98
34482;BME280;20720;48.886;9.388;2023-02-28T11:17:57;99206.41;;;5.96;62.32
34482;BME280;20720;48.886;9.388;2023-02-28T11:20:25;99192.06;;;7.80;60.17
34482;BME280;20720;48.886;9.388;2023-02-28T11:22:51;99186.44;;;8.32;57.59
34482;BME280;20720;48.886;9.388;2023-02-28T11:25:21;99197.47;;;7.86;60.26
34482;BME280;20720;48.886;9.388;2023-02-28T11:27:48;99193.19;;;7.77;58.97
34482;BME280;20720;48.886;9.388;2023-02-28T11:30:24;99185.78;;;9.25;55.66
34482;BME280;20720;48.886;9.388;2023-02-28T11:32:50;99181.34;;;8.31;56.22
34482;BME280;20720;48.886;9.388;2023-02-28T11:35:36;99190.31;;;8.04;56.70
34482;BME280;20720;48.886;9.388;2023-02-28T11:38:03;99185.13;;;6.87;58.84
34482;BME280;20720;48.886;9.388;2023-02-28T11:40:31;99184.25;;;8.92;55.32
34482;BME280;20720;48.886;9.388;2023-02-28T11:45:41;99181.22;;;7.17;58.85
34482;BME280;20720;48.886;9.388;2023-02-28T11:48:21;99183.50;;;8.35;57.21
34482;BME280;20720;48.886;9.388;2023-02-28T11:51:14;99183.28;;;9.32;53.65
34482;BME280;20720;48.886;9.388;2023-02-28T11:56:32;99174.56;;;9.01;53.91
34482;BME280;20720;48.886;9.388;2023-02-28T12:04:36;99165.13;;;12.18;48.36
34482;BME280;20720;48.886;9.388;2023-02-28T12:07:07;99164.16;;;8.52;50.94
34482;BME280;20720;48.886;9.388;2023-02-28T12:12:23;99168.03;;;11.52;49.06
34482;BME280;20720;48.886;9.388;2023-02-28T12:14:57;99167.03;;;12.80;46.46
34482;BME280;20720;48.886;9.388;2023-02-28T12:25:18;99167.00;;;7.69;54.83
34482;BME280;20720;48.886;9.388;2023-02-28T12:27:46;99162.69;;;8.58;52.49
34482;BME280;20720;48.886;9.388;2023-02-28T12:30:22;99162.34;;;9.24;52.86
34482;BME280;20720;48.886;9.388;2023-02-28T12:32:49;99162.69;;;9.29;52.47
34482;BME280;20720;48.886;9.388;2023-02-28T12:35:18;99154.84;;;9.13;52.80
34482;BME280;20720;48.886;9.388;2023-02-28T12:37:46;99154.38;;;10.47;51.39
34482;BME280;20720;48.886;9.388;2023-02-28T12:40:17;99147.47;;;9.16;52.13
34482;BME280;20720;48.886;9.388;2023-02-28T12:42:45;99152.22;;;9.82;51.86
34482;BME280;20720;48.886;9.388;2023-02-28T12:45:18;99141.91;;;8.65;52.89
34482;BME280;20720;48.886;9.388;2023-02-28T12:47:44;99144.06;;;9.16;53.05
34482;BME280;20720;48.886;9.388;2023-02-28T12:50:11;99137.38;;;11.30;48.18
34482;BME280;20720;48.886;9.388;2023-02-28T12:52:40;99142.63;;;9.97;51.18
34482;BME280;20720;48.886;9.388;2023-02-28T12:55:21;99130.41;;;11.37;48.47
34482;BME280;20720;48.886;9.388;2023-02-28T13:00:16;99140.38;;;10.09;49.96
34482;BME280;20720;48.886;9.388;2023-02-28T13:08:17;99131.41;;;10.26;50.71
34482;BME280;20720;48.886;9.388;2023-02-28T13:10:38;99126.63;;;9.31;52.02
34482;BME280;20720;48.886;9.388;2023-02-28T13:13:04;99126.28;;;9.26;52.03
34482;BME280;20720;48.886;9.388;2023-02-28T13:15:29;99117.06;;;9.69;51.68
34482;BME280;20720;48.886;9.388;2023-02-28T13:17:55;99120.19;;;9.64;50.11
34482;BME280;20720;48.886;9.388;2023-02-28T13:20:21;99132.25;;;9.12;50.71
34482;BME280;20720;48.886;9.388;2023-02-28T13:22:48;99121.41;;;9.23;53.04
34482;BME280;20720;48.886;9.388;2023-02-28T13:27:48;99123.31;;;9.60;52.10
34482;BME280;20720;48.886;9.388;2023-02-28T13:38:39;99119.31;;;10.54;51.72
34482;BME280;20720;48.886;9.388;2023-02-28T13:43:59;99126.78;;;8.75;52.52
34482;BME280;20720;48.886;9.388;2023-02-28T13:46:26;99126.72;;;9.68;50.95
34482;BME280;20720;48.886;9.388;2023-02-28T13:48:51;99122.13;;;8.38;52.75
34482;BME280;20720;48.886;9.388;2023-02-28T13:51:37;99117.81;;;10.89;50.35
34482;BME280;20720;48.886;9.388;2023-02-28T13:56:45;99129.31;;;10.59;50.73
34482;BME280;20720;48.886;9.388;2023-02-28T13:59:16;99121.09;;;10.91;47.69
34482;BME280;20720;48.886;9.388;2023-02-28T14:01:51;99122.50;;;11.22;48.92
34482;BME280;20720;48.886;9.388;2023-02-28T14:06:53;99130.97;;;10.89;48.12
34482;BME280;20720;48.886;9.388;2023-02-28T14:09:29;99126.84;;;9.13;51.59
34482;BME280;20720;48.886;9.388;2023-02-28T14:11:55;99114.34;;;8.85;52.14
34482;BME280;20720;48.886;9.388;2023-02-28T14:17:02;99123.81;;;9.63;50.88
34482;BME280;20720;48.886;9.388;2023-02-28T14:19:28;99122.34;;;10.06;51.06
34482;BME280;20720;48.886;9.388;2023-02-28T14:27:20;99120.19;;;10.98;48.48
34482;BME280;20720;48.886;9.388;2023-02-28T14:34:54;99117.00;;;11.03;49.46
34482;BME280;20720;48.886;9.388;2023-02-28T14:37:28;99118.56;;;11.48;47.74
34482;BME280;20720;48.886;9.388;2023-02-28T14:39:55;99116.81;;;12.32;46.95
34482;BME280;20720;48.886;9.388;2023-02-28T14:42:34;99119.59;;;9.99;49.37
34482;BME280;20720;48.886;9.388;2023-02-28T14:44:59;99124.16;;;9.60;52.28
34482;BME280;20720;48.886;9.388;2023-02-28T14:47:27;99115.91;;;11.98;47.18
34482;BME280;20720;48.886;9.388;2023-02-28T14:49:52;99127.09;;;10.33;49.88
34482;BME280;20720;48.886;9.388;2023-02-28T14:52:20;99129.25;;;9.31;52.73
34482;BME280;20720;48.886;9.388;2023-02-28T14:54:45;99130.25;;;9.22;51.98
34482;BME280;20720;48.886;9.388;2023-02-28T14:57:24;99132.88;;;9.83;52.73